Time;durP1;ratioP1;P1;durP2;ratioP2;P2;SDS_P1;SDS_P2;PMS_P1;PMS_P2;Temp;Humidity;BMP_temperature;BMP_pressure;BME280_temperature;BME280_humidity;BME280_pressure;Samples;Min_cycle;Max_cycle;Signal;HPM_P1;HPM_P2
2022/04/16 00:00:51;;;;;;;52.60;34.75;;;;;;;13.65;100.00;100192.22;4800725;29;20059;-84
2022/04/16 00:03:16;;;;;;;53.75;37.60;;;;;;;13.73;100.00;100225.59;4798163;29;20030;-84
2022/04/16 00:05:44;;;;;;;61.92;40.70;;;;;;;13.76;100.00;100250.81;4812828;29;20501;-84
2022/04/16 00:08:09;;;;;;;63.33;40.70;;;;;;;13.66;100.00;100230.00;4803413;29;20031;-85
2022/04/16 00:10:37;;;;;;;61.28;40.67;;;;;;;13.52;100.00;100213.19;4784906;29;20509;-84
2022/04/16 00:13:04;;;;;;;59.80;38.40;;;;;;;13.68;100.00;100239.38;4812304;29;20027;-84
2022/04/16 00:15:30;;;;;;;62.30;39.28;;;;;;;13.70;100.00;100247.09;4783421;29;20125;-85
2022/04/16 00:17:56;;;;;;;53.30;36.55;;;;;;;13.63;100.00;100246.19;4800517;29;20099;-83
2022/04/16 00:20:25;;;;;;;57.92;38.88;;;;;;;13.61;100.00;100261.41;4784757;29;20424;-84
2022/04/16 00:22:52;;;;;;;56.30;37.70;;;;;;;13.49;100.00;100251.31;4816146;29;20109;-82
2022/04/16 00:25:20;;;;;;;57.13;36.45;;;;;;;13.61;100.00;100259.56;4782925;29;20050;-83
2022/04/16 00:27:47;;;;;;;53.42;36.38;;;;;;;13.49;100.00;100251.31;4779789;29;20031;-83
2022/04/16 00:30:13;;;;;;;53.78;38.35;;;;;;;13.29;100.00;100241.28;4783350;29;20035;-83
2022/04/16 00:32:42;;;;;;;56.78;38.10;;;;;;;13.46;100.00;100262.22;4803057;29;20026;-83
2022/04/16 00:35:09;;;;;;;54.42;36.05;;;;;;;13.44;100.00;100266.88;4785598;29;20052;-83
2022/04/16 00:37:35;;;;;;;56.85;37.40;;;;;;;13.25;100.00;100241.81;4799966;29;20035;-84
2022/04/16 00:40:01;;;;;;;50.83;35.97;;;;;;;13.39;100.00;100266.56;4804494;29;20045;-85
2022/04/16 00:42:49;;;;;;;55.50;37.33;;;;;;;13.23;100.00;100242.03;4788448;29;20031;-85
2022/04/16 00:45:18;;;;;;;59.13;38.28;;;;;;;13.32;100.00;100260.38;4804739;29;20069;-85
2022/04/16 00:47:45;;;;;;;56.90;36.97;;;;;;;13.29;100.00;100267.66;4805069;29;20058;-83
2022/04/16 00:50:12;;;;;;;61.65;38.33;;;;;;;13.27;100.00;100251.19;4804066;29;20142;-83
2022/04/16 00:52:39;;;;;;;56.67;36.85;;;;;;;13.29;100.00;100251.84;4802951;29;20031;-85
2022/04/16 00:55:08;;;;;;;58.40;37.20;;;;;;;13.14;100.00;100227.28;4789871;29;20046;-84
2022/04/16 00:57:35;;;;;;;55.58;37.53;;;;;;;13.27;100.00;100269.66;4811216;29;20550;-85
2022/04/16 01:00:01;;;;;;;57.90;37.55;;;;;;;13.12;100.00;100240.66;4803213;29;20034;-86
2022/04/16 01:02:28;;;;;;;53.85;37.08;;;;;;;12.91;100.00;100222.91;4781151;29;20482;-85
2022/04/16 01:04:54;;;;;;;60.30;37.90;;;;;;;13.04;100.00;100242.56;4787235;29;20087;-86
2022/04/16 01:07:26;;;;;;;56.10;36.72;;;;;;;12.88;100.00;100235.66;4792004;29;20117;-85
2022/04/16 01:09:52;;;;;;;50.72;35.53;;;;;;;13.00;100.00;100263.19;4821461;29;20501;-84
2022/04/16 01:12:20;;;;;;;55.40;37.42;;;;;;;13.02;100.00;100257.75;4808351;29;20366;-84
2022/04/16 01:14:46;;;;;;;58.63;35.72;;;;;;;13.03;100.00;100262.00;4793903;29;20042;-85
2022/04/16 01:17:13;;;;;;;59.55;37.83;;;;;;;12.97;100.00;100264.38;4806735;29;20039;-84
2022/04/16 01:19:41;;;;;;;56.67;36.78;;;;;;;12.62;100.00;100224.53;4790968;29;20054;-85
2022/04/16 01:22:11;;;;;;;53.25;34.97;;;;;;;12.56;100.00;100219.94;4805087;29;20042;-86
2022/04/16 01:24:38;;;;;;;58.83;38.08;;;;;;;12.63;100.00;100239.31;4801819;29;20406;-86
2022/04/16 01:27:04;;;;;;;58.17;38.38;;;;;;;12.36;100.00;100207.28;4819163;29;20174;-84
2022/04/16 01:29:30;;;;;;;56.03;37.00;;;;;;;12.66;100.00;100261.84;4806179;29;20456;-84
2022/04/16 01:31:56;;;;;;;60.15;37.92;;;;;;;12.61;100.00;100251.84;4818931;29;20041;-85
2022/04/16 01:34:25;;;;;;;59.47;37.50;;;;;;;12.47;100.00;100236.81;4785854;29;20038;-84
2022/04/16 01:36:52;;;;;;;56.53;38.20;;;;;;;12.64;100.00;100256.75;4800753;29;20509;-85
2022/04/16 01:39:17;;;;;;;66.20;40.75;;;;;;;12.18;100.00;100197.06;4799542;29;20042;-86
2022/04/16 01:41:43;;;;;;;66.70;40.42;;;;;;;12.66;100.00;100267.94;4788132;29;20083;-85
2022/04/16 01:44:09;;;;;;;65.38;41.05;;;;;;;12.57;100.00;100258.44;4816019;29;20034;-85
2022/04/16 01:46:36;;;;;;;63.53;40.90;;;;;;;12.36;100.00;100230.16;4799858;29;20035;-86
2022/04/16 01:49:01;;;;;;;62.13;39.95;;;;;;;12.34;100.00;100234.78;4801967;29;20106;-85
2022/04/16 01:51:27;;;;;;;66.10;41.78;;;;;;;12.54;100.00;100270.19;4799764;29;20034;-86
2022/04/16 01:53:53;;;;;;;65.30;40.28;;;;;;;12.40;100.00;100237.53;4803640;29;20444;-88
2022/04/16 01:56:19;;;;;;;64.53;40.08;;;;;;;12.23;100.00;100212.34;4783995;29;20027;-85
2022/04/16 01:58:45;;;;;;;60.63;38.83;;;;;;;12.47;100.00;100265.78;4791485;29;20038;-86
2022/04/16 02:01:11;;;;;;;62.72;41.33;;;;;;;12.44;100.00;100264.31;4817801;29;20126;-84
2022/04/16 02:03:37;;;;;;;65.78;40.03;;;;;;;12.22;100.00;100229.94;4786261;29;20053;-84
2022/04/16 02:06:04;;;;;;;62.30;40.25;;;;;;;12.43;100.00;100268.78;4787754;29;20530;-85
2022/04/16 02:08:30;;;;;;;61.38;40.72;;;;;;;12.42;100.00;100280.31;4786997;29;20034;-85
2022/04/16 02:10:55;;;;;;;67.60;42.03;;;;;;;12.38;100.00;100273.75;4786531;29;20118;-85
2022/04/16 02:13:21;;;;;;;65.18;42.90;;;;;;;12.34;100.00;100279.56;4787738;29;20483;-84
2022/04/16 02:15:47;;;;;;;64.80;40.70;;;;;;;12.28;100.00;100265.25;4804824;29;20030;-83
2022/04/16 02:18:13;;;;;;;68.63;43.35;;;;;;;12.04;100.00;100248.66;4787174;29;20039;-84
2022/04/16 02:20:38;;;;;;;69.30;41.80;;;;;;;12.20;100.00;100268.78;4787548;29;20111;-83
2022/04/16 02:23:04;;;;;;;64.93;40.97;;;;;;;12.17;100.00;100268.28;4799149;29;20045;-84
2022/04/16 02:25:32;;;;;;;73.90;43.85;;;;;;;12.19;100.00;100285.56;4799790;29;20030;-83
2022/04/16 02:27:57;;;;;;;68.78;43.88;;;;;;;12.17;100.00;100284.91;4781855;29;20542;-83
2022/04/16 02:30:23;;;;;;;73.25;44.03;;;;;;;12.18;100.00;100291.81;4784434;29;20122;-83
2022/04/16 02:32:53;;;;;;;68.85;42.70;;;;;;;12.02;100.00;100255.06;4814152;29;20034;-82
2022/04/16 02:35:19;;;;;;;64.13;41.92;;;;;;;12.10;100.00;100279.53;4802230;29;20054;-84
2022/04/16 02:37:45;;;;;;;66.18;42.38;;;;;;;12.09;100.00;100290.25;4784649;29;20042;-84
2022/04/16 02:40:12;;;;;;;70.10;42.67;;;;;;;12.00;100.00;100287.59;4799767;29;20031;-83
2022/04/16 02:42:41;;;;;;;71.28;43.88;;;;;;;12.07;100.00;100295.66;4799131;29;20035;-84
2022/04/16 02:47:54;;;;;;;66.55;42.25;;;;;;;12.01;100.00;100280.56;4802732;29;20115;-83
2022/04/16 02:50:20;;;;;;;75.63;42.47;;;;;;;11.92;100.00;100292.09;4783907;29;20121;-82
2022/04/16 02:52:46;;;;;;;67.10;43.17;;;;;;;11.85;100.00;100292.78;4798221;29;20035;-83
2022/04/16 02:55:16;;;;;;;64.25;40.63;;;;;;;11.83;100.00;100286.88;4800895;29;20068;-84
2022/04/16 02:57:49;;;;;;;74.20;43.70;;;;;;;11.73;100.00;100272.31;4786268;29;20054;-84
2022/04/16 03:00:15;;;;;;;71.82;42.85;;;;;;;11.63;100.00;100262.00;4787033;29;20050;-84
2022/04/16 03:02:47;;;;;;;74.18;45.40;;;;;;;11.57;100.00;100263.47;4817614;29;20034;-86
2022/04/16 03:05:13;;;;;;;72.78;45.22;;;;;;;11.64;100.00;100274.94;4801187;29;20110;-84
2022/04/16 03:07:40;;;;;;;74.07;44.88;;;;;;;11.59;100.00;100279.91;4785537;29;20041;-86
2022/04/16 03:10:09;;;;;;;71.63;44.70;;;;;;;11.28;100.00;100257.84;4783314;29;20034;-85
2022/04/16 03:12:51;;;;;;;78.32;47.53;;;;;;;11.61;100.00;100306.84;4818566;29;20405;-85
2022/04/16 03:18:04;;;;;;;83.30;49.30;;;;;;;11.39;100.00;100279.47;4814161;29;20074;-85
2022/04/16 03:20:30;;;;;;;77.25;46.95;;;;;;;11.34;100.00;100268.66;4797256;29;20035;-86
2022/04/16 03:22:59;;;;;;;82.07;47.85;;;;;;;11.42;100.00;100294.94;4801525;29;20102;-86
2022/04/16 03:25:29;;;;;;;85.68;50.28;;;;;;;11.44;100.00;100290.31;4778844;29;20402;-85
2022/04/16 03:27:55;;;;;;;79.70;47.55;;;;;;;11.34;100.00;100285.25;4784601;29;20125;-85
2022/04/16 03:30:23;;;;;;;85.03;49.78;;;;;;;11.38;100.00;100302.31;4800398;29;20110;-84
2022/04/16 03:32:50;;;;;;;75.82;47.50;;;;;;;11.46;100.00;100316.44;4800467;29;20043;-86
2022/04/16 03:35:19;;;;;;;75.75;47.08;;;;;;;11.37;100.00;100305.94;4804529;29;20061;-85
2022/04/16 03:37:44;;;;;;;79.75;48.22;;;;;;;11.43;100.00;100323.66;4818518;29;20043;-85
2022/04/16 03:40:10;;;;;;;77.55;47.20;;;;;;;11.35;100.00;100312.34;4800335;29;20030;-86
2022/04/16 03:42:51;;;;;;;81.00;49.63;;;;;;;11.43;100.00;100323.66;4805790;29;20034;-85
2022/04/16 03:45:22;;;;;;;86.75;48.88;;;;;;;11.39;100.00;100322.38;4785895;29;20039;-83
2022/04/16 03:47:50;;;;;;;92.00;53.30;;;;;;;11.00;100.00;100281.06;4809803;29;20055;-84
2022/04/16 03:50:17;;;;;;;86.00;48.60;;;;;;;11.31;100.00;100332.09;4800886;29;20035;-84
2022/04/16 03:52:47;;;;;;;79.65;45.33;;;;;;;11.07;100.00;100307.47;4819044;29;20035;-85
2022/04/16 04:00:44;;;;;;;91.13;52.22;;;;;;;11.30;100.00;100341.78;4818913;29;20035;-85
2022/04/16 04:03:11;;;;;;;84.57;50.65;;;;;;;11.40;100.00;100347.66;4798585;29;20439;-85
2022/04/16 04:05:37;;;;;;;78.15;47.70;;;;;;;11.33;100.00;100324.84;4799719;29;20054;-84
2022/04/16 04:08:05;;;;;;;86.20;51.63;;;;;;;11.32;100.00;100324.03;4786682;29;20786;-85
2022/04/16 04:10:31;;;;;;;85.25;49.97;;;;;;;11.28;100.00;100320.91;4785369;29;20038;-86
2022/04/16 04:12:56;;;;;;;83.30;50.80;;;;;;;11.36;100.00;100338.47;4816279;29;20044;-85
2022/04/16 04:15:23;;;;;;;85.50;49.63;;;;;;;11.49;100.00;100351.09;4817972;29;20122;-85
2022/04/16 04:17:50;;;;;;;81.32;49.97;;;;;;;11.49;100.00;100351.09;4787758;29;20489;-86
2022/04/16 04:20:16;;;;;;;84.80;51.95;;;;;;;11.18;100.00;100322.88;4789667;29;20102;-86
2022/04/16 04:22:42;;;;;;;91.55;53.38;;;;;;;11.23;100.00;100331.13;4803877;29;20075;-85
2022/04/16 04:25:08;;;;;;;88.65;53.70;;;;;;;11.34;100.00;100340.47;4788954;29;20043;-85
2022/04/16 04:27:37;;;;;;;86.20;51.95;;;;;;;11.29;100.00;100343.59;4805397;29;20058;-86
2022/04/16 04:30:04;;;;;;;87.63;52.80;;;;;;;11.24;100.00;100343.28;4804502;29;20035;-87
2022/04/16 04:32:30;;;;;;;81.78;50.58;;;;;;;11.18;100.00;100338.66;4818182;29;20035;-85
2022/04/16 04:34:56;;;;;;;80.93;49.83;;;;;;;11.21;100.00;100356.75;4788715;29;20035;-85
2022/04/16 04:37:23;;;;;;;84.82;52.97;;;;;;;11.11;100.00;100353.47;4790253;29;20455;-86
2022/04/16 04:39:50;;;;;;;93.35;53.10;;;;;;;10.75;100.00;100322.25;4818912;29;20034;-85
2022/04/16 04:42:27;;;;;;;84.93;51.70;;;;;;;10.92;100.00;100347.56;4790097;29;20046;-85
2022/04/16 04:44:52;;;;;;;94.70;54.05;;;;;;;10.90;100.00;100357.41;4786121;29;20041;-86
2022/04/16 04:47:19;;;;;;;93.13;54.47;;;;;;;10.85;100.00;100360.50;4788836;29;20062;-85
2022/04/16 04:49:45;;;;;;;95.75;55.90;;;;;;;10.78;100.00;100350.81;4798381;29;20035;-83
2022/04/16 04:52:11;;;;;;;103.10;59.45;;;;;;;10.77;100.00;100363.16;4804883;29;20041;-82
2022/04/16 04:54:36;;;;;;;107.03;60.35;;;;;;;10.71;100.00;100351.47;4787490;29;20039;-82
2022/04/16 04:57:03;;;;;;;104.38;58.33;;;;;;;10.64;100.00;100347.03;4820795;29;20486;-88
2022/04/16 04:59:30;;;;;;;101.57;58.50;;;;;;;10.51;100.00;100322.06;4791208;29;20513;-86
2022/04/16 05:01:56;;;;;;;97.30;56.80;;;;;;;10.52;100.00;100331.63;4800287;29;20030;-86
2022/04/16 05:04:21;;;;;;;93.35;55.72;;;;;;;10.53;100.00;100345.56;4805766;29;20034;-86
2022/04/16 05:06:52;;;;;;;92.03;55.53;;;;;;;10.70;100.00;100368.22;4788783;29;20379;-85
2022/04/16 05:09:21;;;;;;;92.18;54.80;;;;;;;10.33;100.00;100314.31;4809194;29;20038;-84
2022/04/16 05:11:46;;;;;;;97.75;57.28;;;;;;;10.18;100.00;100284.44;4788123;29;20030;-86
2022/04/16 05:14:12;;;;;;;97.18;55.60;;;;;;;10.70;100.00;100368.22;4803769;29;20039;-87
2022/04/16 05:16:38;;;;;;;96.18;54.55;;;;;;;10.55;100.00;100336.53;4785681;29;20038;-85
2022/04/16 05:19:04;;;;;;;86.35;50.60;;;;;;;10.50;100.00;100333.56;4803863;29;20050;-86
2022/04/16 05:21:29;;;;;;;93.18;52.38;;;;;;;10.55;100.00;100328.66;4807630;29;20477;-85
2022/04/16 05:23:55;;;;;;;98.32;54.40;;;;;;;10.45;100.00;100314.06;4820917;29;20053;-85
2022/04/16 05:26:24;;;;;;;92.45;54.95;;;;;;;10.47;100.00;100315.50;4802494;29;20031;-88
2022/04/16 05:28:52;;;;;;;102.05;55.08;;;;;;;10.55;100.00;100335.72;4791007;29;20079;-87
2022/04/16 05:31:20;;;;;;;95.15;55.28;;;;;;;10.29;100.00;100289.38;4804746;29;20034;-86
2022/04/16 05:36:30;;;;;;;89.38;54.63;;;;;;;10.83;100.00;100369.56;4804348;29;20180;-88
2022/04/16 05:38:56;;;;;;;88.63;54.80;;;;;;;10.87;100.00;100363.00;4815413;29;20084;-87
2022/04/16 05:41:21;;;;;;;98.95;56.67;;;;;;;10.65;100.00;100327.69;4785820;29;20042;-87
2022/04/16 05:43:48;;;;;;;93.68;54.13;;;;;;;10.77;100.00;100330.81;4799166;29;20042;-88
2022/04/16 05:46:14;;;;;;;90.30;54.53;;;;;;;10.71;100.00;100319.16;4784170;29;20035;-86
2022/04/16 05:48:40;;;;;;;99.18;57.55;;;;;;;10.77;100.00;100330.81;4814888;29;20051;-89
2022/04/16 05:51:06;;;;;;;109.25;60.85;;;;;;;10.96;100.00;100356.75;4783051;29;20038;-87
2022/04/16 05:53:32;;;;;;;110.43;62.08;;;;;;;10.97;100.00;100350.50;4794229;29;20035;-90
2022/04/16 05:55:58;;;;;;;108.63;64.03;;;;;;;11.06;100.00;100361.03;4791591;29;20375;-87
2022/04/16 05:58:24;;;;;;;107.65;61.70;;;;;;;11.09;100.00;100365.94;4803546;29;20035;-87
2022/04/16 06:00:50;;;;;;;109.57;66.28;;;;;;;11.31;100.00;100389.91;4791906;29;20495;-88
2022/04/16 06:03:16;;;;;;;109.10;65.18;;;;;;;11.19;100.00;100363.94;4788483;29;20038;-87
2022/04/16 06:05:42;;;;;;;111.22;66.45;;;;;;;11.39;100.00;100392.50;4806574;29;20038;-87
2022/04/16 06:08:08;;;;;;;104.85;61.67;;;;;;;11.26;100.00;100366.75;4786145;29;20031;-87
2022/04/16 06:10:36;;;;;;;104.65;61.47;;;;;;;11.42;100.00;100387.75;4800704;29;20043;-87
2022/04/16 06:13:02;;;;;;;100.82;60.08;;;;;;;11.62;100.00;100402.38;4783314;29;20537;-87
2022/04/16 06:15:28;;;;;;;93.78;58.58;;;;;;;11.43;100.00;100364.94;4808697;29;20038;-89
2022/04/16 06:17:53;;;;;;;105.40;59.83;;;;;;;11.74;100.00;100411.53;4788008;29;20043;-89
2022/04/16 06:20:19;;;;;;;103.50;60.45;;;;;;;11.30;100.00;100357.56;4785063;29;20034;-88
2022/04/16 06:22:45;;;;;;;106.20;61.47;;;;;;;11.83;100.00;100407.06;4808060;29;20034;-90
2022/04/16 06:25:12;;;;;;;99.18;59.60;;;;;;;11.72;100.00;100389.84;4785273;29;20091;-90
2022/04/16 06:27:39;;;;;;;106.38;63.50;;;;;;;11.75;100.00;100371.06;4805978;29;20046;-85
2022/04/16 06:30:09;;;;;;;99.60;62.83;;;;;;;11.98;100.00;100407.19;4799048;29;20034;-85
2022/04/16 06:32:35;;;;;;;97.18;60.22;;;;;;;12.13;100.00;100413.41;4816344;29;20034;-88
2022/04/16 06:35:05;;;;;;;102.65;59.42;;;;;;;12.10;100.00;100405.06;4816866;29;20035;-88
2022/04/16 06:37:35;;;;;;;103.78;60.03;;;;;;;12.19;100.00;100403.22;4797763;29;20062;-85
2022/04/16 06:40:02;;;;;;;96.55;59.47;;;;;;;12.05;100.00;100409.97;4816552;29;20435;-85
2022/04/16 06:42:28;;;;;;;103.60;60.38;;;;;;;12.14;100.00;100412.41;4812417;29;20504;-86
2022/04/16 06:44:55;;;;;;;99.80;59.97;;;;;;;12.16;100.00;100414.06;4819098;29;20077;-85
2022/04/16 06:47:20;;;;;;;93.90;56.72;;;;;;;12.13;100.00;100394.97;4815270;29;20066;-85
2022/04/16 06:49:46;;;;;;;97.18;58.53;;;;;;;12.05;100.00;100370.50;4801781;29;20401;-88
2022/04/16 06:52:12;;;;;;;89.47;57.58;;;;;;;12.28;100.00;100395.09;4819114;29;20026;-84
2022/04/16 06:54:38;;;;;;;96.40;56.67;;;;;;;12.42;100.00;100414.59;4798366;29;20039;-84
2022/04/16 06:57:04;;;;;;;88.88;57.45;;;;;;;12.45;100.00;100404.72;4795969;29;20039;-84
2022/04/16 06:59:31;;;;;;;87.97;57.88;;;;;;;12.60;100.00;100400.34;4784434;29;20035;-84
2022/04/16 07:01:56;;;;;;;92.20;58.45;;;;;;;12.63;100.00;100396.53;4785488;29;20089;-83
2022/04/16 07:04:22;;;;;;;90.70;56.25;;;;;;;12.67;100.00;100409.19;4799395;29;20057;-84
2022/04/16 07:06:47;;;;;;;87.40;58.28;;;;;;;12.80;100.00;100407.81;4781579;29;20451;-83
2022/04/16 07:09:13;;;;;;;83.05;53.20;;;;;;;12.91;100.00;100404.75;4798566;29;20035;-82
2022/04/16 07:11:39;;;;;;;85.38;54.75;;;;;;;12.94;100.00;100412.28;4795725;29;20043;-83
2022/04/16 07:14:04;;;;;;;88.47;55.30;;;;;;;12.94;100.00;100391.22;4807408;29;20413;-82
2022/04/16 07:16:31;;;;;;;85.40;55.15;;;;;;;13.11;100.00;100405.09;4814345;29;20490;-83
2022/04/16 07:18:57;;;;;;;80.50;54.38;;;;;;;13.20;100.00;100400.56;4797931;29;20082;-83
2022/04/16 07:21:23;;;;;;;83.10;54.95;;;;;;;13.28;100.00;100408.41;4768581;29;20134;-83
2022/04/16 07:23:48;;;;;;;83.70;55.15;;;;;;;13.44;100.00;100406.66;4795362;29;20117;-84
2022/04/16 07:26:15;;;;;;;88.22;55.83;;;;;;;13.44;100.00;100396.09;4796969;29;20026;-83
2022/04/16 07:28:40;;;;;;;82.85;53.83;;;;;;;13.39;100.00;100403.72;4802280;29;20038;-82
2022/04/16 07:31:06;;;;;;;76.07;51.92;;;;;;;13.53;100.00;100402.91;4796155;29;20399;-81
2022/04/16 07:33:32;;;;;;;73.13;48.13;;;;;;;13.80;100.00;100411.25;4799785;29;20039;-81
2022/04/16 07:35:58;;;;;;;76.05;50.15;;;;;;;13.98;100.00;100412.69;4798892;29;20137;-83
2022/04/16 07:38:23;;;;;;;68.22;48.50;;;;;;;13.98;100.00;100404.78;4800152;29;20146;-82
2022/04/16 07:40:52;;;;;;;70.68;48.00;;;;;;;13.97;100.00;100406.59;4817057;29;20469;-84
2022/04/16 07:43:19;;;;;;;78.40;49.75;;;;;;;14.04;100.00;100398.75;4798698;29;20034;-79
2022/04/16 07:45:48;;;;;;;73.72;51.70;;;;;;;14.31;100.00;100414.91;4796440;29;20102;-85
2022/04/16 07:48:14;;;;;;;78.90;50.08;;;;;;;14.23;100.00;100393.91;4796145;29;20106;-82
2022/04/16 07:50:39;;;;;;;67.38;46.65;;;;;;;14.59;100.00;100403.66;4775832;29;20047;-79
2022/04/16 07:53:06;;;;;;;72.55;48.60;;;;;;;14.65;100.00;100396.81;4779321;29;20164;-83
2022/04/16 07:55:33;;;;;;;72.97;48.13;;;;;;;14.64;100.00;100408.34;4795972;29;20560;-82
2022/04/16 07:58:01;;;;;;;76.35;49.85;;;;;;;14.74;100.00;100408.09;4795204;29;20039;-82
2022/04/16 08:00:27;;;;;;;67.45;45.28;;;;;;;14.91;100.00;100400.75;4816470;29;20197;-83
2022/04/16 08:02:52;;;;;;;65.85;45.72;;;;;;;14.68;100.00;100405.16;4794849;29;20117;-83
2022/04/16 08:05:18;;;;;;;69.97;48.30;;;;;;;14.97;100.00;100402.63;4788748;29;20393;-84
2022/04/16 08:07:44;;;;;;;70.20;47.47;;;;;;;14.96;100.00;100396.53;4812843;29;20489;-83
2022/04/16 08:10:11;;;;;;;67.50;46.13;;;;;;;15.03;100.00;100387.81;4781473;29;20059;-83
2022/04/16 08:12:40;;;;;;;66.50;46.47;;;;;;;15.13;100.00;100412.09;4799215;29;20129;-83
2022/04/16 08:15:06;;;;;;;62.50;43.00;;;;;;;15.27;100.00;100413.84;4796005;29;20063;-83
2022/04/16 08:17:33;;;;;;;66.78;44.03;;;;;;;15.25;100.00;100396.56;4796734;29;20035;-83
2022/04/16 08:19:59;;;;;;;63.45;42.90;;;;;;;15.43;100.00;100409.28;4797306;29;20039;-83
2022/04/16 08:22:28;;;;;;;66.45;43.90;;;;;;;15.44;100.00;100407.47;4809509;29;20031;-83
2022/04/16 08:27:39;;;;;;;56.40;40.50;;;;;;;15.60;100.00;100419.59;4815031;29;20038;-85
2022/04/16 08:30:07;;;;;;;68.70;45.78;;;;;;;15.52;100.00;100410.75;4795285;29;20298;-85
2022/04/16 08:32:41;;;;;;;56.25;40.03;;;;;;;15.68;100.00;100407.03;4780275;29;20066;-84
2022/04/16 08:35:10;;;;;;;;;;;;;;;15.83;100.00;100425.44;4798804;29;20042;-83
2022/04/16 08:37:36;;;;;;;60.78;42.97;;;;;;;15.80;100.00;100415.22;4779461;29;20014;-86
2022/04/16 08:40:05;;;;;;;60.55;41.28;;;;;;;15.93;100.00;100429.59;4801069;29;20512;-85
2022/04/16 08:42:37;;;;;;;59.78;42.78;;;;;;;16.07;100.00;100414.59;4799082;29;20070;-85
2022/04/16 08:45:05;;;;;;;62.45;42.25;;;;;;;16.15;100.00;100413.59;4811745;29;20509;-85
2022/04/16 08:47:31;;;;;;;62.25;44.13;;;;;;;16.31;100.00;100425.69;4799758;29;20058;-84
2022/04/16 08:49:59;;;;;;;57.35;40.70;;;;;;;16.39;100.00;100418.38;4812403;29;20030;-84
2022/04/16 08:52:29;;;;;;;56.25;39.88;;;;;;;16.36;100.00;100404.69;4786784;29;20053;-84
2022/04/16 08:54:55;;;;;;;57.40;39.30;;;;;;;16.51;100.00;100404.56;4798059;29;20052;-84
2022/04/16 08:57:21;;;;;;;56.20;40.58;;;;;;;16.68;100.00;100419.06;4796763;29;20053;-83
2022/04/16 08:59:51;;;;;;;52.50;37.92;;;;;;;16.70;100.00;100411.75;4803334;29;20035;-83
2022/04/16 09:02:24;;;;;;;53.95;38.95;;;;;;;16.78;100.00;100421.31;4823609;29;20041;-84
2022/04/16 09:05:04;;;;;;;58.03;41.42;;;;;;;16.76;100.00;100412.75;4806277;29;20041;-84
2022/04/16 09:07:30;;;;;;;56.50;39.83;;;;;;;16.64;100.00;100409.88;4802552;29;20114;-84
2022/04/16 09:10:09;;;;;;;61.80;41.65;;;;;;;16.65;100.00;100400.91;4801611;29;20541;-84
2022/04/16 09:12:41;;;;;;;53.33;36.92;;;;;;;16.74;100.00;100419.28;4798451;29;20038;-83
2022/04/16 09:15:09;;;;;;;53.05;38.90;;;;;;;16.49;100.00;100370.28;4813871;29;20172;-84
2022/04/16 09:17:36;;;;;;;52.45;39.90;;;;;;;16.81;100.00;100409.50;4799074;29;20073;-84
2022/04/16 09:20:04;;;;;;;50.50;36.25;;;;;;;16.93;100.00;100413.19;4800594;29;20045;-85
2022/04/16 09:22:35;;;;;;;49.35;37.33;;;;;;;17.01;100.00;100404.25;4787767;29;20031;-83
2022/04/16 09:25:02;;;;;;;47.75;34.67;;;;;;;16.99;100.00;100412.41;4784267;29;20130;-85
2022/04/16 09:27:39;;;;;;;53.67;37.15;;;;;;;17.07;100.00;100392.81;4803755;29;20082;-84
2022/04/16 09:30:05;;;;;;;44.80;33.00;;;;;;;17.16;100.00;100396.09;4821536;29;20049;-85
2022/04/16 09:32:42;;;;;;;48.28;36.97;;;;;;;17.36;100.00;100409.34;4802226;29;20042;-85
2022/04/16 09:35:09;;;;;;;50.67;37.00;;;;;;;17.33;100.00;100408.94;4786150;29;20064;-84
2022/04/16 09:37:34;;;;;;;47.95;35.28;;;;;;;17.39;100.00;100410.75;4798116;29;20118;-85
2022/04/16 09:40:10;;;;;;;47.00;34.60;;;;;;;17.46;100.00;100406.25;4813707;29;20168;-85
2022/04/16 09:42:36;;;;;;;44.35;33.38;;;;;;;17.54;100.00;100403.41;4815945;29;20043;-86
2022/04/16 09:45:14;;;;;;;42.60;32.15;;;;;;;17.47;100.00;100384.00;4820022;29;20027;-87
2022/04/16 09:47:42;;;;;;;39.85;28.83;;;;;;;17.73;100.00;100397.44;4801432;29;20066;-85
2022/04/16 09:50:08;;;;;;;38.20;29.65;;;;;;;17.65;100.00;100385.19;4804103;29;20046;-87
2022/04/16 09:52:35;;;;;;;40.42;29.38;;;;;;;17.76;100.00;100389.03;4816562;29;20478;-84
2022/04/16 09:55:01;;;;;;;39.10;29.83;;;;;;;17.80;100.00;100375.16;4819661;29;20460;-85
2022/04/16 09:57:30;;;;;;;40.63;29.83;;;;;;;17.90;100.00;100403.13;4816425;29;20047;-84
2022/04/16 09:59:59;;;;;;;34.33;26.33;;;;;;;17.85;100.00;100391.25;4803474;29;20034;-85
2022/04/16 10:02:27;;;;;;;35.10;24.33;;;;;;;18.16;100.00;100393.44;4812414;29;20047;-84
2022/04/16 10:04:53;;;;;;;34.97;24.63;;;;;;;18.32;100.00;100400.94;4816598;29;20045;-85
2022/04/16 10:07:20;;;;;;;30.27;23.63;;;;;;;18.29;100.00;100397.88;4821181;29;20138;-84
2022/04/16 10:09:46;;;;;;;25.95;20.08;;;;;;;18.47;100.00;100395.31;4809760;29;20042;-85
2022/04/16 10:14:47;;;;;;;29.08;20.20;;;;;;;18.66;100.00;100398.88;4803922;29;20034;-86
2022/04/16 10:17:27;;;;;;;27.33;20.15;;;;;;;18.75;100.00;100385.34;4812328;29;20031;-86
2022/04/16 10:20:04;;;;;;;25.25;19.27;;;;;;;18.89;100.00;100391.38;4803077;29;20030;-85
2022/04/16 10:22:29;;;;;;;26.98;19.77;;;;;;;18.82;100.00;100396.72;4801112;29;20102;-85
2022/04/16 10:24:58;;;;;;;24.00;18.23;;;;;;;18.97;100.00;100399.09;4814873;29;20034;-86
2022/04/16 10:27:28;;;;;;;24.30;18.77;;;;;;;18.75;100.00;100388.00;4809576;29;20382;-86
2022/04/16 10:30:02;;;;;;;23.42;18.15;;;;;;;19.10;100.00;100390.22;4799482;29;20086;-83
2022/04/16 10:32:41;;;;;;;24.83;17.35;;;;;;;19.42;100.00;100395.44;4790705;29;20067;-82
2022/04/16 10:35:16;;;;;;;24.63;17.23;;;;;;;19.49;100.00;100379.41;4813825;29;20390;-83
2022/04/16 10:37:43;;;;;;;26.10;16.75;;;;;;;19.52;100.00;100385.09;4778599;29;20034;-86
2022/04/16 10:40:23;;;;;;;20.48;14.98;;;;;;;19.92;100.00;100389.19;4792369;29;20034;-86
2022/04/16 10:42:59;;;;;;;21.42;16.52;;;;;;;20.11;100.00;100375.84;4793017;29;20095;-85
2022/04/16 10:45:25;;;;;;;19.52;14.68;;;;;;;20.25;100.00;100379.16;4811428;29;20038;-84
2022/04/16 10:47:54;;;;;;;14.38;11.65;;;;;;;20.19;100.00;100388.88;4794434;29;20384;-84
2022/04/16 10:50:21;;;;;;;20.30;13.75;;;;;;;20.16;100.00;100380.50;4800649;29;20431;-87
2022/04/16 10:53:02;;;;;;;16.27;12.82;;;;;;;20.48;100.00;100385.63;4805569;29;20041;-85
2022/04/16 10:55:32;;;;;;;17.00;13.55;;;;;;;20.44;100.00;100365.75;4803724;29;20031;-84
2022/04/16 10:58:03;;;;;;;19.92;13.38;;;;;;;20.86;100.00;100376.47;4813482;29;20046;-88
2022/04/16 11:00:45;;;;;;;19.33;14.13;;;;;;;21.07;100.00;100366.25;4795788;29;20039;-86
2022/04/16 11:03:14;;;;;;;18.70;13.20;;;;;;;21.35;100.00;100378.91;4775077;29;20065;-89
2022/04/16 11:05:44;;;;;;;16.38;11.60;;;;;;;21.59;100.00;100325.44;4807845;29;20039;-86
2022/04/16 11:08:16;;;;;;;21.35;12.10;;;;;;;21.52;100.00;100336.25;4792448;29;20030;-84
2022/04/16 11:10:42;;;;;;;15.13;10.90;;;;;;;21.81;100.00;100376.44;4812020;29;20175;-85
2022/04/16 11:13:10;;;;;;;12.82;10.23;;;;;;;21.48;99.69;100356.47;4801436;29;20066;-88
2022/04/16 11:15:35;;;;;;;13.18;9.98;;;;;;;21.76;100.00;100364.81;4818337;29;20070;-89
2022/04/16 11:18:03;;;;;;;15.70;9.80;;;;;;;21.91;98.55;100354.44;4785291;29;20092;-90
2022/04/16 11:20:29;;;;;;;12.25;9.73;;;;;;;21.81;97.69;100340.88;4824449;29;20038;-89
2022/04/16 11:22:56;;;;;;;13.07;9.73;;;;;;;22.13;96.37;100367.16;4792039;29;20049;-89